createdAt,value
2018-12-24T00:00:01.466Z,100.00
2018-12-24T00:02:32.127Z,100.00
2018-12-24T00:05:00.663Z,100.00
2018-12-24T00:07:28.543Z,100.00
2018-12-24T00:09:56.714Z,100.00
2018-12-24T00:12:24.882Z,100.00
2018-12-24T00:14:53.050Z,100.00
2018-12-24T00:17:21.110Z,100.00
2018-12-24T00:19:48.507Z,100.00
2018-12-24T00:22:16.418Z,100.00
2018-12-24T00:24:44.170Z,100.00
2018-12-24T00:27:11.982Z,100.00
2018-12-24T00:29:39.175Z,100.00
2018-12-24T00:32:06.991Z,100.00
2018-12-24T00:34:34.763Z,100.00
2018-12-24T00:37:02.285Z,100.00
2018-12-24T00:39:29.434Z,100.00
2018-12-24T00:41:56.658Z,100.00
2018-12-24T00:44:25.195Z,100.00
2018-12-24T00:46:52.748Z,100.00
2018-12-24T00:49:21.036Z,100.00
2018-12-24T00:51:49.030Z,100.00
2018-12-24T00:54:16.735Z,100.00
2018-12-24T00:56:44.674Z,100.00
2018-12-24T00:59:12.116Z,100.00
2018-12-24T01:01:39.916Z,100.00
2018-12-24T01:04:08.856Z,100.00
2018-12-24T01:06:36.902Z,100.00
2018-12-24T01:09:05.437Z,100.00
2018-12-24T01:11:33.306Z,100.00
2018-12-24T01:14:01.016Z,100.00
2018-12-24T01:16:28.690Z,100.00
2018-12-24T01:18:55.810Z,100.00
2018-12-24T01:21:23.528Z,100.00
2018-12-24T01:23:52.003Z,100.00
2018-12-24T01:26:19.669Z,100.00
2018-12-24T01:28:48.276Z,100.00
2018-12-24T01:31:16.128Z,100.00
2018-12-24T01:33:43.571Z,100.00
2018-12-24T01:36:11.614Z,100.00
2018-12-24T01:38:39.284Z,100.00
2018-12-24T01:41:06.540Z,100.00
2018-12-24T01:43:35.053Z,100.00
2018-12-24T01:46:02.585Z,100.00
2018-12-24T01:48:29.958Z,100.00
2018-12-24T01:50:58.404Z,100.00
2018-12-24T01:53:26.235Z,100.00
2018-12-24T01:55:53.620Z,100.00
2018-12-24T01:58:21.689Z,100.00
2018-12-24T02:00:49.599Z,100.00
2018-12-24T02:03:17.404Z,100.00
2018-12-24T02:05:45.016Z,100.00
2018-12-24T02:08:12.404Z,100.00
2018-12-24T02:10:39.556Z,100.00
2018-12-24T02:13:07.174Z,100.00
2018-12-24T02:15:34.583Z,100.00
2018-12-24T02:18:02.598Z,100.00
2018-12-24T02:20:30.003Z,100.00
2018-12-24T02:22:57.142Z,100.00
2018-12-24T02:25:24.922Z,100.00
2018-12-24T02:27:52.723Z,100.00
2018-12-24T02:30:19.861Z,100.00
2018-12-24T02:32:47.240Z,100.00
2018-12-24T02:35:14.383Z,100.00
2018-12-24T02:37:41.769Z,100.00
2018-12-24T02:40:10.371Z,100.00
2018-12-24T02:42:38.206Z,100.00
2018-12-24T02:45:05.583Z,100.00
2018-12-24T02:47:32.731Z,100.00
2018-12-24T02:50:00.229Z,100.00
2018-12-24T02:52:28.654Z,100.00
2018-12-24T02:54:56.082Z,100.00
2018-12-24T02:57:24.348Z,100.00
2018-12-24T02:59:51.739Z,100.00
2018-12-24T03:02:54.497Z,100.00
2018-12-24T03:05:21.671Z,100.00
2018-12-24T03:07:48.362Z,100.00
2018-12-24T03:10:15.602Z,100.00
2018-12-24T03:12:42.631Z,100.00
2018-12-24T03:15:09.306Z,100.00
2018-12-24T03:17:35.978Z,100.00
2018-12-24T03:20:02.815Z,100.00
2018-12-24T03:22:30.099Z,100.00
2018-12-24T03:24:58.357Z,100.00
2018-12-24T03:27:25.314Z,100.00
2018-12-24T03:29:53.205Z,100.00
2018-12-24T03:32:20.662Z,100.00
2018-12-24T03:34:48.647Z,100.00
2018-12-24T03:37:15.425Z,100.00
2018-12-24T03:39:43.021Z,100.00
2018-12-24T03:42:10.330Z,100.00
2018-12-24T03:44:38.258Z,100.00
2018-12-24T03:47:05.696Z,100.00
2018-12-24T03:49:32.664Z,100.00
2018-12-24T03:51:59.574Z,100.00
2018-12-24T03:54:26.767Z,100.00
2018-12-24T03:56:53.444Z,100.00
2018-12-24T03:59:21.347Z,100.00
2018-12-24T04:01:48.482Z,100.00
2018-12-24T04:04:16.587Z,100.00
2018-12-24T04:06:44.038Z,100.00
2018-12-24T04:09:10.703Z,100.00
2018-12-24T04:11:38.232Z,100.00
2018-12-24T04:14:06.484Z,100.00
2018-12-24T04:16:33.984Z,100.00
2018-12-24T04:19:00.754Z,100.00
2018-12-24T04:21:29.201Z,100.00
2018-12-24T04:23:56.492Z,100.00
2018-12-24T04:26:23.601Z,100.00
2018-12-24T04:28:50.984Z,100.00
2018-12-24T04:31:17.670Z,100.00
2018-12-24T04:33:45.148Z,100.00
2018-12-24T04:36:12.693Z,100.00
2018-12-24T04:38:40.666Z,100.00
2018-12-24T04:41:08.010Z,100.00
2018-12-24T04:43:35.330Z,100.00
2018-12-24T04:46:02.317Z,100.00
2018-12-24T04:48:29.978Z,100.00
2018-12-24T04:50:57.339Z,100.00
2018-12-24T04:53:25.517Z,100.00
2018-12-24T04:55:52.266Z,100.00
2018-12-24T04:58:20.025Z,100.00
2018-12-24T05:00:46.691Z,100.00
2018-12-24T05:03:15.186Z,100.00
2018-12-24T05:05:44.668Z,100.00
2018-12-24T05:08:11.903Z,100.00
2018-12-24T05:10:40.347Z,100.00
2018-12-24T05:13:07.755Z,100.00
2018-12-24T05:15:35.294Z,100.00
2018-12-24T05:18:02.213Z,100.00
2018-12-24T05:20:30.076Z,100.00
2018-12-24T05:22:58.062Z,100.00
2018-12-24T05:25:25.613Z,100.00
2018-12-24T05:27:53.381Z,100.00
2018-12-24T05:30:20.850Z,100.00
2018-12-24T05:32:48.234Z,100.00
2018-12-24T05:35:15.609Z,100.00
2018-12-24T05:37:42.866Z,100.00
2018-12-24T05:40:09.845Z,100.00
2018-12-24T05:42:37.399Z,100.00
2018-12-24T05:45:05.181Z,100.00
2018-12-24T05:47:32.418Z,100.00
2018-12-24T05:50:00.610Z,100.00
2018-12-24T05:52:27.521Z,100.00
2018-12-24T05:54:55.003Z,100.00
2018-12-24T05:57:22.111Z,100.00
2018-12-24T05:59:48.773Z,100.00
2018-12-24T06:02:15.870Z,100.00
2018-12-24T06:04:42.799Z,100.00
2018-12-24T06:07:09.535Z,100.00
2018-12-24T06:09:36.199Z,100.00
2018-12-24T06:12:03.190Z,100.00
2018-12-24T06:14:30.154Z,100.00
2018-12-24T06:16:56.841Z,100.00
2018-12-24T06:19:23.517Z,100.00
2018-12-24T06:21:50.488Z,100.00
2018-12-24T06:24:17.144Z,100.00
2018-12-24T06:26:43.818Z,100.00
2018-12-24T06:29:10.902Z,100.00
2018-12-24T06:31:38.029Z,100.00
2018-12-24T06:34:05.825Z,100.00
2018-12-24T06:36:32.893Z,100.00
2018-12-24T06:38:59.850Z,100.00
2018-12-24T06:41:27.452Z,100.00
2018-12-24T06:43:55.943Z,100.00
2018-12-24T06:46:22.704Z,100.00
2018-12-24T06:48:50.862Z,100.00
2018-12-24T06:51:18.415Z,100.00
2018-12-24T06:53:45.453Z,100.00
2018-12-24T06:56:12.390Z,100.00
2018-12-24T06:58:39.246Z,100.00
2018-12-24T07:01:06.322Z,100.00
2018-12-24T07:03:33.332Z,100.00
2018-12-24T07:06:00.502Z,100.00
2018-12-24T07:08:27.530Z,100.00
2018-12-24T07:10:54.642Z,100.00
2018-12-24T07:13:21.849Z,100.00
2018-12-24T07:15:49.161Z,100.00
2018-12-24T07:18:16.053Z,100.00
2018-12-24T07:20:43.600Z,100.00
2018-12-24T07:23:10.658Z,100.00
2018-12-24T07:25:37.796Z,100.00
2018-12-24T07:28:04.725Z,100.00
2018-12-24T07:30:32.002Z,100.00
2018-12-24T07:32:59.850Z,100.00
2018-12-24T07:35:27.718Z,100.00
2018-12-24T07:37:55.181Z,100.00
2018-12-24T07:40:21.845Z,100.00
2018-12-24T07:42:48.788Z,100.00
2018-12-24T07:45:15.786Z,100.00
2018-12-24T07:47:43.043Z,100.00
2018-12-24T07:50:10.726Z,100.00
2018-12-24T07:52:38.386Z,100.00
2018-12-24T07:55:06.771Z,100.00
2018-12-24T07:57:34.049Z,100.00
2018-12-24T08:00:00.962Z,100.00
2018-12-24T08:02:27.937Z,100.00
2018-12-24T08:04:55.442Z,100.00
2018-12-24T08:07:22.354Z,100.00
2018-12-24T08:09:49.773Z,100.00
2018-12-24T08:12:17.823Z,100.00
2018-12-24T08:14:45.300Z,100.00
2018-12-24T08:17:12.245Z,100.00
2018-12-24T08:19:39.582Z,100.00
2018-12-24T08:22:06.236Z,100.00
2018-12-24T08:24:33.246Z,100.00
2018-12-24T08:27:00.456Z,100.00
2018-12-24T08:29:27.382Z,100.00
2018-12-24T08:31:54.175Z,100.00
2018-12-24T08:34:21.157Z,100.00
2018-12-24T08:36:47.819Z,100.00
2018-12-24T08:39:15.107Z,100.00
2018-12-24T08:41:42.803Z,100.00
2018-12-24T08:44:10.464Z,100.00
2018-12-24T08:46:38.169Z,100.00
2018-12-24T08:49:05.906Z,100.00
2018-12-24T08:51:32.598Z,100.00
2018-12-24T08:54:00.398Z,100.00
2018-12-24T08:56:29.181Z,100.00
2018-12-24T08:58:55.665Z,100.00
2018-12-24T09:01:23.594Z,100.00
2018-12-24T09:03:50.304Z,100.00
2018-12-24T09:06:17.335Z,100.00
2018-12-24T09:08:44.006Z,100.00
2018-12-24T09:11:11.394Z,100.00
2018-12-24T09:13:38.059Z,100.00
2018-12-24T09:16:04.726Z,100.00
2018-12-24T09:18:31.677Z,100.00
2018-12-24T09:20:58.905Z,100.00
2018-12-24T09:23:25.618Z,100.00
2018-12-24T09:25:52.667Z,100.00
2018-12-24T09:28:19.941Z,100.00
2018-12-24T09:30:49.850Z,100.00
2018-12-24T09:33:16.891Z,100.00
2018-12-24T09:35:44.708Z,100.00
2018-12-24T09:38:12.674Z,100.00
2018-12-24T09:40:39.909Z,100.00
2018-12-24T09:43:07.581Z,100.00
2018-12-24T09:45:34.470Z,100.00
2018-12-24T09:48:01.386Z,100.00
2018-12-24T09:50:28.330Z,100.00
2018-12-24T09:52:55.322Z,100.00
2018-12-24T09:55:22.951Z,100.00
2018-12-24T09:57:50.895Z,100.00
2018-12-24T10:00:18.380Z,100.00
2018-12-24T10:02:53.346Z,100.00
2018-12-24T10:05:22.612Z,100.00
2018-12-24T10:07:49.511Z,100.00
2018-12-24T10:10:18.147Z,100.00
2018-12-24T10:12:45.445Z,100.00
2018-12-24T10:15:13.647Z,100.00
2018-12-24T10:17:41.096Z,100.00
2018-12-24T10:20:08.231Z,100.00
2018-12-24T10:22:34.892Z,100.00
2018-12-24T10:25:02.186Z,100.00
2018-12-24T10:27:30.431Z,100.00
2018-12-24T10:29:57.543Z,100.00
2018-12-24T10:32:25.322Z,100.00
2018-12-24T10:34:54.230Z,100.00
2018-12-24T10:37:21.224Z,100.00
2018-12-24T10:39:48.408Z,100.00
2018-12-24T10:42:15.366Z,100.00
2018-12-24T10:44:42.803Z,100.00
2018-12-24T10:47:09.482Z,100.00
2018-12-24T10:49:36.166Z,100.00
2018-12-24T10:52:02.941Z,100.00
2018-12-24T10:54:29.636Z,100.00
2018-12-24T10:56:56.999Z,100.00
2018-12-24T10:59:24.121Z,100.00
2018-12-24T11:01:51.403Z,100.00
2018-12-24T11:04:18.092Z,100.00
2018-12-24T11:06:45.707Z,100.00
2018-12-24T11:09:12.410Z,100.00
2018-12-24T11:11:39.113Z,100.00
2018-12-24T11:14:06.455Z,100.00
2018-12-24T11:16:33.665Z,100.00
2018-12-24T11:19:01.377Z,100.00
2018-12-24T11:21:28.630Z,100.00
2018-12-24T11:23:55.565Z,100.00
2018-12-24T11:26:22.562Z,100.00
2018-12-24T11:28:50.470Z,100.00
2018-12-24T11:31:17.693Z,100.00
2018-12-24T11:33:45.199Z,100.00
2018-12-24T11:36:11.887Z,100.00
2018-12-24T11:38:38.837Z,100.00
2018-12-24T11:41:05.494Z,100.00
2018-12-24T11:43:32.389Z,100.00
2018-12-24T11:45:59.734Z,100.00
2018-12-24T11:48:26.650Z,100.00
2018-12-24T11:50:53.954Z,100.00
2018-12-24T11:53:20.965Z,100.00
2018-12-24T11:55:48.239Z,100.00
2018-12-24T11:58:16.769Z,100.00
2018-12-24T12:00:43.921Z,100.00
2018-12-24T12:03:12.758Z,100.00
2018-12-24T12:05:39.753Z,100.00
2018-12-24T12:08:07.326Z,100.00
2018-12-24T12:10:34.557Z,100.00
2018-12-24T12:13:02.019Z,100.00
2018-12-24T12:15:29.748Z,100.00
2018-12-24T12:17:56.640Z,100.00
2018-12-24T12:20:24.209Z,100.00
2018-12-24T12:22:51.437Z,100.00
2018-12-24T12:25:18.246Z,100.00
2018-12-24T12:27:44.944Z,100.00
2018-12-24T12:30:12.719Z,100.00
2018-12-24T12:32:39.620Z,100.00
2018-12-24T12:35:06.886Z,100.00
2018-12-24T12:37:33.977Z,100.00
2018-12-24T12:40:00.636Z,100.00
2018-12-24T12:42:27.546Z,100.00
2018-12-24T12:44:55.112Z,100.00
2018-12-24T12:47:22.179Z,100.00
2018-12-24T12:49:49.159Z,100.00
2018-12-24T12:52:16.687Z,100.00
2018-12-24T12:54:43.321Z,100.00
2018-12-24T12:57:10.689Z,100.00
2018-12-24T12:59:38.059Z,100.00
2018-12-24T13:02:05.629Z,100.00
2018-12-24T13:04:33.004Z,100.00
2018-12-24T13:06:59.674Z,100.00
2018-12-24T13:09:27.702Z,100.00
2018-12-24T13:11:54.979Z,99.32
2018-12-24T13:14:23.488Z,100.00
2018-12-24T13:16:51.802Z,96.14
2018-12-24T13:19:19.602Z,98.46
2018-12-24T13:21:46.276Z,96.79
2018-12-24T13:24:13.340Z,98.37
2018-12-24T13:26:40.281Z,93.49
2018-12-24T13:29:07.815Z,91.82
2018-12-24T13:31:34.888Z,96.91
2018-12-24T13:34:01.837Z,100.00
2018-12-24T13:36:29.025Z,100.00
2018-12-24T13:38:55.734Z,96.29
2018-12-24T13:41:23.190Z,93.49
2018-12-24T13:43:50.871Z,91.06
2018-12-24T13:46:17.811Z,97.51
2018-12-24T13:48:44.822Z,95.96
2018-12-24T13:51:11.495Z,100.00
2018-12-24T13:53:41.957Z,100.00
2018-12-24T13:56:07.907Z,100.00
2018-12-24T13:58:34.583Z,100.00
2018-12-24T14:01:02.119Z,100.00
2018-12-24T14:03:30.018Z,100.00
2018-12-24T14:05:57.056Z,100.00
2018-12-24T14:08:24.878Z,100.00
2018-12-24T14:10:51.778Z,100.00
2018-12-24T14:13:19.793Z,100.00
2018-12-24T14:15:47.171Z,100.00
2018-12-24T14:18:14.892Z,100.00
2018-12-24T14:20:42.523Z,100.00
2018-12-24T14:23:10.069Z,100.00
2018-12-24T14:25:38.366Z,100.00
2018-12-24T14:28:06.530Z,100.00
2018-12-24T14:30:34.395Z,100.00
2018-12-24T14:33:05.558Z,100.00
2018-12-24T14:35:32.874Z,100.00
2018-12-24T14:37:59.827Z,100.00
2018-12-24T14:40:27.592Z,100.00
2018-12-24T14:42:55.769Z,100.00
2018-12-24T14:45:23.838Z,100.00
2018-12-24T14:47:50.756Z,100.00
2018-12-24T14:50:17.476Z,100.00
2018-12-24T14:52:44.138Z,100.00
2018-12-24T14:55:11.693Z,100.00
2018-12-24T14:57:38.653Z,100.00
2018-12-24T15:00:06.188Z,100.00
2018-12-24T15:02:33.823Z,100.00
2018-12-24T15:05:01.845Z,100.00
2018-12-24T15:07:29.224Z,100.00
2018-12-24T15:09:56.913Z,100.00
2018-12-24T15:12:25.133Z,100.00
2018-12-24T15:14:52.455Z,100.00
2018-12-24T15:17:19.248Z,100.00
2018-12-24T15:19:46.276Z,100.00
2018-12-24T15:22:13.108Z,100.00
2018-12-24T15:24:39.775Z,100.00
2018-12-24T15:27:06.888Z,100.00
2018-12-24T15:29:34.342Z,100.00
2018-12-24T15:32:01.386Z,100.00
2018-12-24T15:34:28.544Z,100.00
2018-12-24T15:36:56.432Z,100.00
2018-12-24T15:39:24.001Z,100.00
2018-12-24T15:41:51.233Z,100.00
2018-12-24T15:44:18.689Z,100.00
2018-12-24T15:46:45.382Z,100.00
2018-12-24T15:49:12.108Z,100.00
2018-12-24T15:51:38.786Z,100.00
2018-12-24T15:54:06.169Z,100.00
2018-12-24T15:56:33.220Z,100.00
2018-12-24T15:59:00.982Z,100.00
2018-12-24T16:01:27.644Z,100.00
2018-12-24T16:03:54.334Z,100.00
2018-12-24T16:06:21.011Z,100.00
2018-12-24T16:08:48.350Z,100.00
2018-12-24T16:11:15.599Z,100.00
2018-12-24T16:13:43.249Z,100.00
2018-12-24T16:16:09.915Z,100.00
2018-12-24T16:18:37.113Z,100.00
2018-12-24T16:21:03.808Z,100.00
2018-12-24T16:23:30.720Z,100.00
2018-12-24T16:25:57.665Z,100.00
2018-12-24T16:28:24.329Z,100.00
2018-12-24T16:30:51.596Z,100.00
2018-12-24T16:33:18.277Z,100.00
2018-12-24T16:35:45.770Z,100.00
2018-12-24T16:38:13.747Z,100.00
2018-12-24T16:40:40.826Z,100.00
2018-12-24T16:43:08.045Z,100.00
2018-12-24T16:45:35.793Z,100.00
2018-12-24T16:48:02.830Z,100.00
2018-12-24T16:50:30.296Z,100.00
2018-12-24T16:52:57.739Z,100.00
2018-12-24T16:55:25.011Z,100.00
2018-12-24T16:57:52.262Z,100.00
2018-12-24T17:00:19.303Z,100.00
2018-12-24T17:02:46.910Z,100.00
2018-12-24T17:05:13.815Z,100.00
2018-12-24T17:07:41.493Z,100.00
2018-12-24T17:10:08.177Z,100.00
2018-12-24T17:12:35.361Z,100.00
2018-12-24T17:15:02.961Z,100.00
2018-12-24T17:17:30.574Z,100.00
2018-12-24T17:19:57.883Z,100.00
2018-12-24T17:22:25.115Z,100.00
2018-12-24T17:24:53.138Z,100.00
2018-12-24T17:27:20.311Z,100.00
2018-12-24T17:29:47.381Z,100.00
2018-12-24T17:32:14.292Z,100.00
2018-12-24T17:34:41.843Z,100.00
2018-12-24T17:37:08.886Z,100.00
2018-12-24T17:39:35.943Z,100.00
2018-12-24T17:42:02.928Z,100.00
2018-12-24T17:44:29.921Z,100.00
2018-12-24T17:46:57.386Z,100.00
2018-12-24T17:49:24.906Z,100.00
2018-12-24T17:51:52.009Z,100.00
2018-12-24T17:54:19.766Z,100.00
2018-12-24T17:56:48.467Z,100.00
2018-12-24T17:59:15.130Z,100.00
2018-12-24T18:01:42.144Z,100.00
2018-12-24T18:04:09.307Z,100.00
2018-12-24T18:06:35.999Z,100.00
2018-12-24T18:09:05.191Z,100.00
2018-12-24T18:11:32.604Z,100.00
2018-12-24T18:14:00.234Z,100.00
2018-12-24T18:16:27.602Z,100.00
2018-12-24T18:18:55.081Z,100.00
2018-12-24T18:21:21.866Z,100.00
2018-12-24T18:23:49.026Z,100.00
2018-12-24T18:26:16.302Z,100.00
2018-12-24T18:28:43.602Z,100.00
2018-12-24T18:31:10.530Z,100.00
2018-12-24T18:33:38.293Z,100.00
2018-12-24T18:36:05.691Z,100.00
2018-12-24T18:38:32.737Z,100.00
2018-12-24T18:40:59.775Z,100.00
2018-12-24T18:43:27.005Z,100.00
2018-12-24T18:45:54.519Z,100.00
2018-12-24T18:48:21.242Z,100.00
2018-12-24T18:50:48.588Z,100.00
2018-12-24T18:53:15.502Z,100.00
2018-12-24T18:55:42.582Z,100.00
2018-12-24T18:58:09.259Z,100.00
2018-12-24T19:00:36.547Z,100.00
2018-12-24T19:03:03.846Z,100.00
2018-12-24T19:05:30.526Z,100.00
2018-12-24T19:07:57.717Z,100.00
2018-12-24T19:10:25.289Z,100.00
2018-12-24T19:12:52.319Z,100.00
2018-12-24T19:15:20.902Z,100.00
2018-12-24T19:17:48.493Z,100.00
2018-12-24T19:20:15.184Z,100.00
2018-12-24T19:22:42.229Z,100.00
2018-12-24T19:25:08.911Z,100.00
2018-12-24T19:27:36.561Z,100.00
2018-12-24T19:30:04.665Z,100.00
2018-12-24T19:32:32.908Z,100.00
2018-12-24T19:34:59.660Z,100.00
2018-12-24T19:37:26.573Z,100.00
2018-12-24T19:39:54.377Z,100.00
2018-12-24T19:42:21.790Z,100.00
2018-12-24T19:44:48.450Z,100.00
2018-12-24T19:47:15.394Z,100.00
2018-12-24T19:49:42.299Z,100.00
2018-12-24T19:52:09.195Z,100.00
2018-12-24T19:54:36.145Z,100.00
2018-12-24T19:57:04.200Z,100.00
2018-12-24T19:59:31.502Z,100.00
2018-12-24T20:01:58.216Z,100.00
2018-12-24T20:04:25.332Z,100.00
2018-12-24T20:06:52.689Z,100.00
2018-12-24T20:09:20.050Z,100.00
2018-12-24T20:11:46.716Z,100.00
2018-12-24T20:14:13.627Z,100.00
2018-12-24T20:16:40.321Z,100.00
2018-12-24T20:19:07.607Z,100.00
2018-12-24T20:21:34.278Z,100.00
2018-12-24T20:24:01.621Z,100.00
2018-12-24T20:26:29.173Z,100.00
2018-12-24T20:28:55.845Z,100.00
2018-12-24T20:31:23.199Z,100.00
2018-12-24T20:33:49.873Z,100.00
2018-12-24T20:36:16.810Z,100.00
2018-12-24T20:38:45.866Z,100.00
2018-12-24T20:41:13.838Z,100.00
2018-12-24T20:43:40.780Z,100.00
2018-12-24T20:46:07.858Z,100.00
2018-12-24T20:48:34.536Z,100.00
2018-12-24T20:51:01.701Z,100.00
2018-12-24T20:53:29.478Z,100.00
2018-12-24T20:55:56.700Z,100.00
2018-12-24T20:58:23.653Z,100.00
2018-12-24T21:00:50.710Z,100.00
2018-12-24T21:03:18.687Z,100.00
2018-12-24T21:05:46.007Z,100.00
2018-12-24T21:08:13.282Z,100.00
2018-12-24T21:10:40.639Z,100.00
2018-12-24T21:13:07.367Z,100.00
2018-12-24T21:15:34.423Z,100.00
2018-12-24T21:18:02.273Z,100.00
2018-12-24T21:20:28.990Z,100.00
2018-12-24T21:22:56.053Z,100.00
2018-12-24T21:25:24.363Z,100.00
2018-12-24T21:27:51.041Z,100.00
2018-12-24T21:30:18.108Z,100.00
2018-12-24T21:32:45.602Z,100.00
2018-12-24T21:35:12.534Z,100.00
2018-12-24T21:37:39.833Z,100.00
2018-12-24T21:40:06.927Z,100.00
2018-12-24T21:42:33.609Z,100.00
2018-12-24T21:45:01.388Z,100.00
2018-12-24T21:47:28.357Z,100.00
2018-12-24T21:49:56.347Z,100.00
2018-12-24T21:52:23.637Z,100.00
2018-12-24T21:54:51.063Z,100.00
2018-12-24T21:57:18.557Z,100.00
2018-12-24T21:59:45.973Z,100.00
2018-12-24T22:02:12.636Z,100.00
2018-12-24T22:04:39.318Z,100.00
2018-12-24T22:07:07.135Z,100.00
2018-12-24T22:09:34.135Z,100.00
2018-12-24T22:12:02.141Z,100.00
2018-12-24T22:14:29.829Z,100.00
2018-12-24T22:16:57.369Z,100.00
2018-12-24T22:19:24.093Z,100.00
2018-12-24T22:21:50.774Z,100.00
2018-12-24T22:24:18.889Z,100.00
2018-12-24T22:26:46.098Z,100.00
2018-12-24T22:29:13.829Z,100.00
2018-12-24T22:31:41.382Z,100.00
2018-12-24T22:34:08.693Z,100.00
2018-12-24T22:36:36.100Z,100.00
2018-12-24T22:39:05.556Z,100.00
2018-12-24T22:41:32.787Z,100.00
2018-12-24T22:44:00.261Z,100.00
2018-12-24T22:46:27.139Z,100.00
2018-12-24T22:48:54.287Z,100.00
2018-12-24T22:51:21.323Z,100.00
2018-12-24T22:53:50.909Z,100.00
2018-12-24T22:56:18.928Z,100.00
2018-12-24T22:58:45.634Z,100.00
2018-12-24T23:01:14.992Z,100.00
2018-12-24T23:03:43.217Z,100.00
2018-12-24T23:06:09.955Z,100.00
2018-12-24T23:08:37.423Z,100.00
2018-12-24T23:11:04.305Z,100.00
2018-12-24T23:13:31.387Z,100.00
2018-12-24T23:15:58.494Z,100.00
2018-12-24T23:18:26.429Z,100.00
2018-12-24T23:20:53.478Z,100.00
2018-12-24T23:23:20.431Z,100.00
2018-12-24T23:25:47.298Z,100.00
2018-12-24T23:28:14.327Z,100.00
2018-12-24T23:30:41.655Z,100.00
2018-12-24T23:33:09.002Z,100.00
2018-12-24T23:35:35.947Z,100.00
2018-12-24T23:38:04.964Z,100.00
2018-12-24T23:40:32.221Z,100.00
2018-12-24T23:42:59.350Z,100.00
2018-12-24T23:45:27.130Z,100.00
2018-12-24T23:47:54.381Z,100.00
2018-12-24T23:50:21.738Z,100.00
2018-12-24T23:52:49.186Z,100.00
2018-12-24T23:55:15.874Z,100.00
2018-12-24T23:57:43.100Z,100.00
